Nearby METAR Reports

 

PAEN - Kenai, Alaska, USA
Distance from station: ESE 2mi, 4km
Updated: Thu, 20-Sep-2018 11:53pm AKDT
Clear
Clear
 Wind from calm
Wind: Calm
Temperature: 45°F , 7°C
Dew Point: 43°F , 6°C
Humidity: 93%
Barometer: 30.07 inHg , 1018.3 hPa
Clouds: Clear
Visibility: 10 miles , 16 km
2018/09/21 07:53 PAEN 210753Z AUTO 00000KT 10SM CLR 07/06 A3007 RMK AO2 SLP184 T00670056 TSNO
PASX - Soldotna, Alaska, USA
Distance from station: SE 12mi, 19km
Updated: Thu, 20-Sep-2018 11:56pm AKDT
Clear
Clear
 Wind from calm
Wind: Calm
Temperature: 41°F , 5°C
Dew Point: 39°F , 4°C
Humidity: 93%
Barometer: 30.09 inHg , 1019 hPa
Clouds: Clear
Visibility: 10 miles , 16 km
2018/09/21 07:56 PASX 210756Z AUTO 00000KT 10SM CLR 05/04 A3009 RMK AO2 SLP198 T00500039
 
PANC - Anchorage Intl, Alaska, USA
Distance from station: NE 59mi, 96km
Updated: Thu, 20-Sep-2018 11:53pm AKDT
Partly cloudy
Partly cloudy
 Wind from SSE
Wind: SSE 3 mph , 6 km/h
Temperature: 48°F , 9°C
Dew Point: 46°F , 8°C
Humidity: 94%
Barometer: 30.06 inHg , 1017.9 hPa
Clouds: Partly cloudy
Visibility: 10 miles , 16 km
Cloud details: Few Clouds 4100 ft
Partly cloudy 7500 ft
Partly cloudy 18000 ft
2018/09/21 07:53 PANC 210753Z AUTO 15003KT 10SM FEW041 SCT075 SCT180 09/08 A3006 RMK AO2 SLP181 T00890078 TSNO
PALH - Anchorage/Lake H, Alaska, USA
Distance from station: NE 61mi, 99km
Updated: Thu, 20-Sep-2018 11:53pm AKDT
Overcast
Overcast
 Wind from calm
Wind: Calm
Temperature: 48°F , 9°C
Dew Point: 46°F , 8°C
Humidity: 94%
Barometer: 30.07 inHg , 1018.3 hPa
Clouds: Overcast
Visibility: 10 miles , 16 km
Cloud details: Overcast 7500 ft
2018/09/21 07:53 PALH 210753Z 00000KT 10SM OVC075 09/08 A3007 RMK AO2 SLP184 T00940078
 
PAHO - Homer, Alaska, USA
Distance from station: S 66mi, 106km
Updated: Fri, 21-Sep-2018 12:04am AKDT
Overcast
Overcast
 Wind from NE
Wind: NE 3 mph , 6 km/h
Temperature: 52°F , 11°C
Dew Point: 48°F , 9°C
Humidity: 88%
Barometer: 30.10 inHg , 1019.3 hPa
Clouds: Overcast
Visibility: 10 miles , 16 km
Cloud details: Overcast 1600 ft
2018/09/21 08:04 PAHO 210804Z AUTO 05003KT 10SM OVC016 11/09 A3010 RMK AO2 T01060094 TSNO
PAMR - Anchorage/Merril, Alaska, USA
Distance from station: NE 66mi, 106km
Updated: Thu, 20-Sep-2018 11:53pm AKDT
Overcast
Overcast
 Wind from calm
Wind: Calm
Temperature: 48°F , 9°C
Dew Point: 46°F , 8°C
Humidity: 94%
Barometer: 30.06 inHg , 1017.9 hPa
Clouds: Overcast
Visibility: 10 miles , 16 km
Cloud details: Overcast 8000 ft
2018/09/21 07:53 PAMR 210753Z 00000KT 10SM OVC080 09/08 A3006 RMK AO2 SLP180 T00940078
 
PAED - Elmendorf Afb, Alaska, USA
Distance from station: NE 69mi, 110km
Updated: Thu, 20-Sep-2018 11:56pm AKDT
Mostly cloudy
Mostly cloudy
 Wind from calm
Wind: Calm
Temperature: 48°F , 9°C
Dew Point: 48°F , 9°C
Humidity: 100%
Barometer: 30.06 inHg , 1017.9 hPa
Clouds: Mostly cloudy
Visibility: 10 miles , 16 km
Cloud details: Mostly cloudy 7500 ft
2018/09/21 07:56 PAED 210756Z 00000KT 10SM BKN075 09/09 A3006 RMK AO2A SLP175 T00930093
PAWD - Seward, Alaska, USA
Distance from station: ESE 71mi, 115km
Updated: Thu, 20-Sep-2018 11:53pm AKDT

 
Barometer: 30.07 inHg , 1018.3 hPa
2018/09/21 07:53 PAWD 210753Z AUTO A3007 RMK AO2 SLP184 PWINO FZRANO TSNO
 
PASC - Deadhorse, Alaska, USA
Distance from station: ENE 670mi, 1078km
Updated: Thu, 20-Sep-2018 11:53pm AKDT
Few Clouds
Few Clouds
 Wind from NNW
Wind: NNW 6 mph , 9 km/h
Temperature: 32°F , 0°C
Wind Chill: 26°F , -3°C
Dew Point: 30°F , -1°C
Humidity: 93%
Barometer: 29.95 inHg , 1014.2 hPa
Clouds: Few Clouds
Visibility: 10 miles , 16 km
Cloud details: Few Clouds 21000 ft
2018/09/21 07:53 PASC 210753Z 33005KT 10SM FEW210 00/M01 A2995 RMK AO2 SLP142 T00001011
PAAD - Point Thomson, Alaska, USA
Distance from station: ENE 680mi, 1094km
Updated: Thu, 20-Sep-2018 11:55pm AKDT
Overcast
Overcast
 Wind from calm
Wind: Calm
Temperature: 32°F , 0°C
Dew Point: 30°F , -1°C
Humidity: 93%
Barometer: 29.94 inHg , 1013.9 hPa
Clouds: Overcast
Visibility: 10 miles , 16 km
Cloud details: Overcast 7500 ft
2018/09/21 07:55 PAAD 210755Z AUTO 00000KT 10SM OVC075 00/M01 A2994 RMK AO2 T00001008


kenaipeople.com website

Dans Automotive

Lower Peninsula Power Sports

Freddies RoadHouse

Alaska Weather Net

United States Weather Group